Relevés horaires Chievres (Belgique)


Relevés horaires à Chievres - Samedi 21 Oct. 2017
Heure UTC1 Température [°C] Vent [km/h] Hum. [%] Pres.4 [hPa] Visi. [Km] Nébu. [octa] Préc.5 [mm] Cond.
2m. Res. Ros. Dir.2 Vit. Moy. Raf.3
23:00 10.3 7.9 6.7 SSO 18.5 -- 25.9 78 1010.5(-0.4/3h) 20 -- -- --
22:00 10.6 8.5 6.9 SSO 16.7 -- 22.2 78 1010.8(-0.1/3h) 20 -- -- --
21:00 10.5 9.1 7.5 SSO 11.1 -- 24.1 82 1011.2(0.4/3h) 20 -- -- --
20:00 11.1 9.5 7.2 SSO 13.0 -- 24.1 77 1011(0.6/3h) 20 -- -- --
19:00 12.3 10.8 7.1 SO 14.8 -- 22.2 71 1010.8(0.6/3h) 20 -- -- --
18:00 12.5 11.7 7.0 SO 9.3 -- 31.5 69 1010.7(0.5/3h) 20 -- 1/12h
NA
17:00 11.5 11.3 8.8 SSO 5.6 -- 25.9 83 1010.2(0.0/3h) 20 -- -- NA
16:00 15.3 14.8 7.6 SSO 11.1 -- 22.2 60 1010.2(-0.1/3h) 20 -- -- --
15:00 15.8 15.1 7.8 SO 14.8 -- 31.5 59 1010.2(-0.5/3h) 20 -- -- --
14:00 16.7 16 7.7 SO 16.7 -- 31.5 55 1010.2(-0.7/3h) 19 -- -- --
13:00 16.7 15.8 7.6 SO 20.4 -- 31.5 55 1010.3(-0.4/3h) 20 -- -- --
12:00 16.4 15.5 9.0 SO 18.5 -- 25.9 62 1010.7(0.2/3h) 19 -- 0.4/6h
NA
11:00 15.5 14.7 9.8 SO 14.8 -- 25.9 69 1011(0.6/3h) 20 -- -- --
10:00 15.6 14.8 11.6 SO 14.8 -- 24.1 77 1010.7(1.3/3h) 20 -- -- --
09:00 15.4 14.6 13.0 SO 14.8 -- 25.9 86 1010.3(0.8/3h) 20 -- -- NA
08:00 14.3 13.6 13.6 SO 11.1 -- 22.2 96 1010.2(0.7/3h) 17 -- -- NA
07:00 14.1 13 13.0 SSO 14.8 -- 25.9 93 1009.6(0.0/3h) 20 -- -- NA
06:00 13.5 12.4 12.6 SSO 13.0 -- 20.4 94 1009.5(-0.2/3h) 6 -- 1/12h
Il y a de la pluie modérée et intermittente à la station au moment de l'observation
05:00 12.6 11.3 12.1 S 13.0 -- 20.4 97 1009.7(-1.0/3h) 3.6 -- -- Il y a de la pluie modérée et intermittente à la station au moment de l'observation
04:00 12.6 11.8 9.9 S 9.3 -- 14.8 84 1009.6(-2.1/3h) 19 -- -- --
03:00 11.7 10.5 8.8 S 11.1 -- 16.7 82 1009.7(-2.2/3h) 20 -- -- --
02:00 11.3 10.3 8.3 S 9.3 -- 13.0 82 1010.7(-1.7/3h) 20 -- -- --
01:00 10.6 9.5 8.1 S 9.3 -- 13.0 85 1011.7(-1.2/3h) 20 -- -- --
00:00 11.3 10.7 8.2 S 7.4 -- 14.8 81 1012.1(-1.5/3h) 20 -- -- --

1 Coordinated Universal Time. Actuellement il est 00:00 locale et 22:00 UTC.

2 Le vent souffle depuis la direction indiquée vers la direction oposée.

3 Les rafales max. sont disponible 40 min après l'heure du relevé.

4 Pour les stations d'altitude (plus de 600m) le géopotentiel du niveau le plus proche de la pression obligatoire est indiqué.

5 Les stations disposant d'un diffuseur peuvent indiquer "trace". Cela signifie que des précipitations ont touchés le sol mais que la quantité est inférieure à 0.1 mm.

Récapitulatif de la journée
Température [°C] Vent [km/h] Ensoleillement4 [h] Precipitations totale5 [mm] Pression [Hpa]
Min1 Max.2 Moy.3 Max. Min Max.
8.8 17.2 0 31.5 0 h 0 min 0 1009.5 1012.1

1 Température minimale relevée entre 18:00 UTC la veille et 18:00 UTC le jour donné.

2 Température maximale relevée entre 06:00 UTC le jour donné et 06:00 UTC le lendemain.

3 Vent moyen de la journée basé sur les relevés horaires.

4 Ensoleillement en heures relevé entre 06:00 UTC la veille et 06:00 UTC le jour donné.

5 Précipitations totales tombées entre 06:00 UTC la jour donné et 06:00 UTC le lendemain.

Graphiques horaires